sensor_id;sensor_type;location;lat;lon;timestamp;P1;durP1;ratioP1;P2;durP2;ratioP2
8654;SDS011;13500;52.514;13.462;2023-03-03T00:00:17;18.03;;;13.13;;
8654;SDS011;13500;52.514;13.462;2023-03-03T00:02:45;18.90;;;13.30;;
8654;SDS011;13500;52.514;13.462;2023-03-03T00:05:13;18.90;;;13.47;;
8654;SDS011;13500;52.514;13.462;2023-03-03T00:07:43;18.93;;;14.20;;
8654;SDS011;13500;52.514;13.462;2023-03-03T00:10:12;19.13;;;12.67;;
8654;SDS011;13500;52.514;13.462;2023-03-03T00:12:46;20.53;;;13.67;;
8654;SDS011;13500;52.514;13.462;2023-03-03T00:15:15;21.00;;;13.97;;
8654;SDS011;13500;52.514;13.462;2023-03-03T00:17:44;19.10;;;13.53;;
8654;SDS011;13500;52.514;13.462;2023-03-03T00:20:25;20.67;;;13.90;;
8654;SDS011;13500;52.514;13.462;2023-03-03T00:22:54;21.40;;;13.80;;
8654;SDS011;13500;52.514;13.462;2023-03-03T00:25:24;19.87;;;13.57;;
8654;SDS011;13500;52.514;13.462;2023-03-03T00:27:56;21.27;;;14.23;;
8654;SDS011;13500;52.514;13.462;2023-03-03T00:30:28;21.63;;;13.73;;
8654;SDS011;13500;52.514;13.462;2023-03-03T00:32:56;21.90;;;13.60;;
8654;SDS011;13500;52.514;13.462;2023-03-03T00:35:25;21.47;;;13.57;;
8654;SDS011;13500;52.514;13.462;2023-03-03T00:37:56;23.47;;;15.20;;
8654;SDS011;13500;52.514;13.462;2023-03-03T00:40:26;22.13;;;14.93;;
8654;SDS011;13500;52.514;13.462;2023-03-03T00:42:59;21.50;;;14.50;;
8654;SDS011;13500;52.514;13.462;2023-03-03T00:45:28;20.57;;;13.27;;
8654;SDS011;13500;52.514;13.462;2023-03-03T00:47:57;21.77;;;14.63;;
8654;SDS011;13500;52.514;13.462;2023-03-03T00:50:30;25.13;;;15.17;;
8654;SDS011;13500;52.514;13.462;2023-03-03T00:53:02;22.17;;;14.43;;
8654;SDS011;13500;52.514;13.462;2023-03-03T00:55:33;21.40;;;14.03;;
8654;SDS011;13500;52.514;13.462;2023-03-03T00:58:03;20.17;;;13.97;;
8654;SDS011;13500;52.514;13.462;2023-03-03T01:00:37;21.33;;;14.53;;
8654;SDS011;13500;52.514;13.462;2023-03-03T01:03:07;19.07;;;13.13;;
8654;SDS011;13500;52.514;13.462;2023-03-03T01:05:37;20.23;;;14.13;;
8654;SDS011;13500;52.514;13.462;2023-03-03T01:08:05;26.53;;;15.03;;
8654;SDS011;13500;52.514;13.462;2023-03-03T01:10:33;21.50;;;14.67;;
8654;SDS011;13500;52.514;13.462;2023-03-03T01:13:04;22.40;;;14.87;;
8654;SDS011;13500;52.514;13.462;2023-03-03T01:15:33;21.00;;;14.60;;
8654;SDS011;13500;52.514;13.462;2023-03-03T01:18:01;21.40;;;14.87;;
8654;SDS011;13500;52.514;13.462;2023-03-03T01:20:29;23.07;;;14.97;;
8654;SDS011;13500;52.514;13.462;2023-03-03T01:22:57;20.87;;;14.63;;
8654;SDS011;13500;52.514;13.462;2023-03-03T01:25:24;21.07;;;14.80;;
8654;SDS011;13500;52.514;13.462;2023-03-03T01:27:52;22.93;;;15.90;;
8654;SDS011;13500;52.514;13.462;2023-03-03T01:30:22;23.63;;;15.90;;
8654;SDS011;13500;52.514;13.462;2023-03-03T01:32:50;22.47;;;15.57;;
8654;SDS011;13500;52.514;13.462;2023-03-03T01:35:18;22.80;;;16.13;;
8654;SDS011;13500;52.514;13.462;2023-03-03T01:37:46;23.27;;;15.87;;
8654;SDS011;13500;52.514;13.462;2023-03-03T01:40:15;23.10;;;15.50;;
8654;SDS011;13500;52.514;13.462;2023-03-03T01:42:45;22.00;;;14.87;;
8654;SDS011;13500;52.514;13.462;2023-03-03T01:45:14;24.53;;;15.40;;
8654;SDS011;13500;52.514;13.462;2023-03-03T01:47:46;23.93;;;16.23;;
8654;SDS011;13500;52.514;13.462;2023-03-03T01:50:18;23.60;;;15.33;;
8654;SDS011;13500;52.514;13.462;2023-03-03T01:52:51;25.90;;;15.63;;
8654;SDS011;13500;52.514;13.462;2023-03-03T01:55:21;26.93;;;17.13;;
8654;SDS011;13500;52.514;13.462;2023-03-03T01:57:51;25.63;;;15.10;;
8654;SDS011;13500;52.514;13.462;2023-03-03T02:00:23;23.40;;;15.97;;
8654;SDS011;13500;52.514;13.462;2023-03-03T02:02:53;23.30;;;15.67;;
8654;SDS011;13500;52.514;13.462;2023-03-03T02:05:21;24.13;;;15.63;;
8654;SDS011;13500;52.514;13.462;2023-03-03T02:07:49;23.80;;;16.03;;
8654;SDS011;13500;52.514;13.462;2023-03-03T02:10:18;23.43;;;15.47;;
8654;SDS011;13500;52.514;13.462;2023-03-03T02:12:47;24.23;;;15.00;;
8654;SDS011;13500;52.514;13.462;2023-03-03T02:15:18;22.63;;;15.30;;
8654;SDS011;13500;52.514;13.462;2023-03-03T02:17:47;24.80;;;16.00;;
8654;SDS011;13500;52.514;13.462;2023-03-03T02:20:19;22.83;;;15.33;;
8654;SDS011;13500;52.514;13.462;2023-03-03T02:22:56;25.40;;;16.50;;
8654;SDS011;13500;52.514;13.462;2023-03-03T02:25:41;24.23;;;16.23;;
8654;SDS011;13500;52.514;13.462;2023-03-03T02:28:13;27.93;;;17.07;;
8654;SDS011;13500;52.514;13.462;2023-03-03T02:30:41;25.50;;;16.97;;
8654;SDS011;13500;52.514;13.462;2023-03-03T02:33:09;24.67;;;16.27;;
8654;SDS011;13500;52.514;13.462;2023-03-03T02:35:37;24.50;;;16.03;;
8654;SDS011;13500;52.514;13.462;2023-03-03T02:38:12;25.10;;;16.37;;
8654;SDS011;13500;52.514;13.462;2023-03-03T02:40:47;35.20;;;20.50;;
8654;SDS011;13500;52.514;13.462;2023-03-03T02:43:22;36.03;;;22.10;;
8654;SDS011;13500;52.514;13.462;2023-03-03T02:45:51;37.33;;;22.40;;
8654;SDS011;13500;52.514;13.462;2023-03-03T02:48:19;35.33;;;19.73;;
8654;SDS011;13500;52.514;13.462;2023-03-03T02:50:47;29.80;;;19.90;;
8654;SDS011;13500;52.514;13.462;2023-03-03T02:53:14;32.27;;;19.50;;
8654;SDS011;13500;52.514;13.462;2023-03-03T02:55:42;30.57;;;19.73;;
8654;SDS011;13500;52.514;13.462;2023-03-03T02:58:10;30.80;;;20.37;;
8654;SDS011;13500;52.514;13.462;2023-03-03T03:00:39;32.07;;;19.83;;
8654;SDS011;13500;52.514;13.462;2023-03-03T03:03:07;29.27;;;20.23;;
8654;SDS011;13500;52.514;13.462;2023-03-03T03:05:37;28.93;;;19.23;;
8654;SDS011;13500;52.514;13.462;2023-03-03T03:08:05;27.03;;;18.43;;
8654;SDS011;13500;52.514;13.462;2023-03-03T03:10:34;27.93;;;18.80;;
8654;SDS011;13500;52.514;13.462;2023-03-03T03:13:03;25.30;;;17.17;;
8654;SDS011;13500;52.514;13.462;2023-03-03T03:15:31;26.57;;;17.07;;
8654;SDS011;13500;52.514;13.462;2023-03-03T03:18:00;27.97;;;18.63;;
8654;SDS011;13500;52.514;13.462;2023-03-03T03:20:29;29.13;;;19.10;;
8654;SDS011;13500;52.514;13.462;2023-03-03T03:22:57;26.87;;;17.70;;
8654;SDS011;13500;52.514;13.462;2023-03-03T03:25:25;26.83;;;17.83;;
8654;SDS011;13500;52.514;13.462;2023-03-03T03:27:53;26.97;;;16.93;;
8654;SDS011;13500;52.514;13.462;2023-03-03T03:30:21;26.43;;;17.40;;
8654;SDS011;13500;52.514;13.462;2023-03-03T03:32:50;27.97;;;17.73;;
8654;SDS011;13500;52.514;13.462;2023-03-03T03:35:19;24.27;;;16.83;;
8654;SDS011;13500;52.514;13.462;2023-03-03T03:37:47;23.73;;;16.67;;
8654;SDS011;13500;52.514;13.462;2023-03-03T03:40:15;27.23;;;17.07;;
8654;SDS011;13500;52.514;13.462;2023-03-03T03:42:43;26.20;;;17.30;;
8654;SDS011;13500;52.514;13.462;2023-03-03T03:45:12;27.17;;;18.00;;
8654;SDS011;13500;52.514;13.462;2023-03-03T03:47:44;24.33;;;16.60;;
8654;SDS011;13500;52.514;13.462;2023-03-03T03:50:13;27.27;;;17.40;;
8654;SDS011;13500;52.514;13.462;2023-03-03T03:52:44;27.13;;;18.10;;
8654;SDS011;13500;52.514;13.462;2023-03-03T03:55:12;30.07;;;18.30;;
8654;SDS011;13500;52.514;13.462;2023-03-03T03:57:41;28.00;;;16.67;;
8654;SDS011;13500;52.514;13.462;2023-03-03T04:00:10;27.80;;;17.00;;
8654;SDS011;13500;52.514;13.462;2023-03-03T04:02:47;27.33;;;17.13;;
8654;SDS011;13500;52.514;13.462;2023-03-03T04:05:17;29.10;;;18.27;;
8654;SDS011;13500;52.514;13.462;2023-03-03T04:07:47;27.07;;;17.03;;
8654;SDS011;13500;52.514;13.462;2023-03-03T04:10:17;27.33;;;16.53;;
8654;SDS011;13500;52.514;13.462;2023-03-03T04:12:45;24.30;;;15.80;;
8654;SDS011;13500;52.514;13.462;2023-03-03T04:15:14;23.23;;;15.40;;
8654;SDS011;13500;52.514;13.462;2023-03-03T04:17:42;23.03;;;14.60;;
8654;SDS011;13500;52.514;13.462;2023-03-03T04:20:11;23.43;;;14.73;;
8654;SDS011;13500;52.514;13.462;2023-03-03T04:22:42;24.00;;;15.03;;
8654;SDS011;13500;52.514;13.462;2023-03-03T04:25:13;23.83;;;15.60;;
8654;SDS011;13500;52.514;13.462;2023-03-03T04:27:43;23.60;;;14.63;;
8654;SDS011;13500;52.514;13.462;2023-03-03T04:30:15;24.57;;;14.57;;
8654;SDS011;13500;52.514;13.462;2023-03-03T04:32:46;24.80;;;15.47;;
8654;SDS011;13500;52.514;13.462;2023-03-03T04:35:18;28.30;;;16.07;;
8654;SDS011;13500;52.514;13.462;2023-03-03T04:37:46;26.70;;;16.40;;
8654;SDS011;13500;52.514;13.462;2023-03-03T04:40:16;26.63;;;17.10;;
8654;SDS011;13500;52.514;13.462;2023-03-03T04:42:47;32.87;;;19.97;;
8654;SDS011;13500;52.514;13.462;2023-03-03T04:45:15;36.83;;;20.80;;
8654;SDS011;13500;52.514;13.462;2023-03-03T04:47:44;32.07;;;20.03;;
8654;SDS011;13500;52.514;13.462;2023-03-03T04:50:13;36.37;;;21.03;;
8654;SDS011;13500;52.514;13.462;2023-03-03T04:52:41;34.33;;;20.40;;
8654;SDS011;13500;52.514;13.462;2023-03-03T04:55:11;48.20;;;23.67;;
8654;SDS011;13500;52.514;13.462;2023-03-03T04:57:41;34.00;;;20.83;;
8654;SDS011;13500;52.514;13.462;2023-03-03T05:00:10;41.40;;;21.97;;
8654;SDS011;13500;52.514;13.462;2023-03-03T05:02:39;42.50;;;21.37;;
8654;SDS011;13500;52.514;13.462;2023-03-03T05:05:08;30.43;;;18.17;;
8654;SDS011;13500;52.514;13.462;2023-03-03T05:07:37;36.30;;;19.87;;
8654;SDS011;13500;52.514;13.462;2023-03-03T05:10:05;33.13;;;18.40;;
8654;SDS011;13500;52.514;13.462;2023-03-03T05:12:34;31.67;;;18.27;;
8654;SDS011;13500;52.514;13.462;2023-03-03T05:15:03;31.37;;;17.47;;
8654;SDS011;13500;52.514;13.462;2023-03-03T05:17:32;28.07;;;16.07;;
8654;SDS011;13500;52.514;13.462;2023-03-03T05:20:00;36.63;;;19.87;;
8654;SDS011;13500;52.514;13.462;2023-03-03T05:22:28;34.37;;;19.80;;
8654;SDS011;13500;52.514;13.462;2023-03-03T05:24:55;28.40;;;15.90;;
8654;SDS011;13500;52.514;13.462;2023-03-03T05:27:23;32.57;;;19.00;;
8654;SDS011;13500;52.514;13.462;2023-03-03T05:29:51;35.60;;;18.60;;
8654;SDS011;13500;52.514;13.462;2023-03-03T05:32:20;35.27;;;19.77;;
8654;SDS011;13500;52.514;13.462;2023-03-03T05:34:48;34.27;;;19.07;;
8654;SDS011;13500;52.514;13.462;2023-03-03T05:37:17;35.10;;;20.03;;
8654;SDS011;13500;52.514;13.462;2023-03-03T05:39:45;34.93;;;19.27;;
8654;SDS011;13500;52.514;13.462;2023-03-03T05:42:13;35.73;;;19.67;;
8654;SDS011;13500;52.514;13.462;2023-03-03T05:44:41;32.77;;;19.57;;
8654;SDS011;13500;52.514;13.462;2023-03-03T05:47:09;37.40;;;20.60;;
8654;SDS011;13500;52.514;13.462;2023-03-03T05:49:38;38.17;;;21.50;;
8654;SDS011;13500;52.514;13.462;2023-03-03T05:52:06;41.20;;;21.93;;
8654;SDS011;13500;52.514;13.462;2023-03-03T05:54:34;59.43;;;26.20;;
8654;SDS011;13500;52.514;13.462;2023-03-03T05:57:02;38.40;;;20.67;;
8654;SDS011;13500;52.514;13.462;2023-03-03T05:59:30;38.60;;;22.37;;
8654;SDS011;13500;52.514;13.462;2023-03-03T06:01:58;41.53;;;22.90;;
8654;SDS011;13500;52.514;13.462;2023-03-03T06:04:26;39.00;;;22.87;;
8654;SDS011;13500;52.514;13.462;2023-03-03T06:06:55;38.03;;;22.97;;
8654;SDS011;13500;52.514;13.462;2023-03-03T06:09:23;46.03;;;25.63;;
8654;SDS011;13500;52.514;13.462;2023-03-03T06:11:51;41.37;;;23.00;;
8654;SDS011;13500;52.514;13.462;2023-03-03T06:14:19;39.37;;;22.90;;
8654;SDS011;13500;52.514;13.462;2023-03-03T06:16:47;36.90;;;21.70;;
8654;SDS011;13500;52.514;13.462;2023-03-03T06:19:16;37.07;;;22.20;;
8654;SDS011;13500;52.514;13.462;2023-03-03T06:21:43;36.07;;;20.30;;
8654;SDS011;13500;52.514;13.462;2023-03-03T06:24:13;34.23;;;20.97;;
8654;SDS011;13500;52.514;13.462;2023-03-03T06:26:41;35.90;;;21.37;;
8654;SDS011;13500;52.514;13.462;2023-03-03T06:29:09;48.10;;;24.57;;
8654;SDS011;13500;52.514;13.462;2023-03-03T06:31:36;52.57;;;25.40;;
8654;SDS011;13500;52.514;13.462;2023-03-03T06:34:04;73.03;;;29.67;;
8654;SDS011;13500;52.514;13.462;2023-03-03T06:36:32;38.40;;;21.17;;
8654;SDS011;13500;52.514;13.462;2023-03-03T06:39:00;41.97;;;22.83;;
8654;SDS011;13500;52.514;13.462;2023-03-03T06:41:29;39.33;;;20.97;;
8654;SDS011;13500;52.514;13.462;2023-03-03T06:43:57;32.70;;;18.80;;
8654;SDS011;13500;52.514;13.462;2023-03-03T06:46:25;34.20;;;17.73;;
8654;SDS011;13500;52.514;13.462;2023-03-03T06:48:54;29.93;;;19.13;;
8654;SDS011;13500;52.514;13.462;2023-03-03T06:51:22;37.43;;;19.97;;
8654;SDS011;13500;52.514;13.462;2023-03-03T06:53:53;32.80;;;18.87;;
8654;SDS011;13500;52.514;13.462;2023-03-03T06:56:23;32.07;;;17.13;;
8654;SDS011;13500;52.514;13.462;2023-03-03T06:58:54;33.67;;;18.83;;
8654;SDS011;13500;52.514;13.462;2023-03-03T07:01:23;28.17;;;16.40;;
8654;SDS011;13500;52.514;13.462;2023-03-03T07:03:51;24.43;;;14.47;;
8654;SDS011;13500;52.514;13.462;2023-03-03T07:06:20;26.67;;;15.93;;
8654;SDS011;13500;52.514;13.462;2023-03-03T07:08:50;37.20;;;18.50;;
8654;SDS011;13500;52.514;13.462;2023-03-03T07:11:19;38.17;;;21.30;;
8654;SDS011;13500;52.514;13.462;2023-03-03T07:13:48;38.63;;;21.50;;
8654;SDS011;13500;52.514;13.462;2023-03-03T07:16:19;39.40;;;21.60;;
8654;SDS011;13500;52.514;13.462;2023-03-03T07:18:51;38.67;;;22.23;;
8654;SDS011;13500;52.514;13.462;2023-03-03T07:21:20;43.57;;;23.27;;
8654;SDS011;13500;52.514;13.462;2023-03-03T07:23:50;41.83;;;23.50;;
8654;SDS011;13500;52.514;13.462;2023-03-03T07:26:19;55.53;;;25.33;;
8654;SDS011;13500;52.514;13.462;2023-03-03T07:28:51;43.57;;;23.53;;
8654;SDS011;13500;52.514;13.462;2023-03-03T07:31:27;43.03;;;23.67;;
8654;SDS011;13500;52.514;13.462;2023-03-03T07:33:58;42.77;;;23.73;;
8654;SDS011;13500;52.514;13.462;2023-03-03T07:36:28;46.43;;;24.33;;
8654;SDS011;13500;52.514;13.462;2023-03-03T07:38:57;41.77;;;24.20;;
8654;SDS011;13500;52.514;13.462;2023-03-03T07:41:27;40.30;;;22.57;;
8654;SDS011;13500;52.514;13.462;2023-03-03T07:43:58;41.77;;;22.63;;
8654;SDS011;13500;52.514;13.462;2023-03-03T07:46:29;41.70;;;23.00;;
8654;SDS011;13500;52.514;13.462;2023-03-03T07:49:02;43.73;;;23.73;;
8654;SDS011;13500;52.514;13.462;2023-03-03T07:51:41;41.17;;;22.67;;
8654;SDS011;13500;52.514;13.462;2023-03-03T07:54:14;40.93;;;21.80;;
8654;SDS011;13500;52.514;13.462;2023-03-03T07:56:49;43.23;;;23.13;;
8654;SDS011;13500;52.514;13.462;2023-03-03T07:59:19;38.17;;;21.90;;
8654;SDS011;13500;52.514;13.462;2023-03-03T08:01:51;47.27;;;23.80;;
8654;SDS011;13500;52.514;13.462;2023-03-03T08:04:23;44.37;;;22.77;;
8654;SDS011;13500;52.514;13.462;2023-03-03T08:06:52;42.30;;;22.20;;
8654;SDS011;13500;52.514;13.462;2023-03-03T08:09:34;40.70;;;21.97;;
8654;SDS011;13500;52.514;13.462;2023-03-03T08:12:17;45.70;;;21.87;;
8654;SDS011;13500;52.514;13.462;2023-03-03T08:15:06;43.10;;;22.40;;
8654;SDS011;13500;52.514;13.462;2023-03-03T08:17:45;45.77;;;23.30;;
8654;SDS011;13500;52.514;13.462;2023-03-03T08:23:19;38.47;;;20.67;;
8654;SDS011;13500;52.514;13.462;2023-03-03T08:25:48;37.20;;;20.47;;
8654;SDS011;13500;52.514;13.462;2023-03-03T08:28:16;39.70;;;20.83;;
8654;SDS011;13500;52.514;13.462;2023-03-03T08:30:45;35.67;;;20.77;;
8654;SDS011;13500;52.514;13.462;2023-03-03T08:33:15;37.73;;;20.40;;
8654;SDS011;13500;52.514;13.462;2023-03-03T08:35:43;31.63;;;17.10;;
8654;SDS011;13500;52.514;13.462;2023-03-03T08:38:12;33.40;;;18.80;;
8654;SDS011;13500;52.514;13.462;2023-03-03T08:40:41;32.17;;;18.07;;
8654;SDS011;13500;52.514;13.462;2023-03-03T08:43:09;33.40;;;19.17;;
8654;SDS011;13500;52.514;13.462;2023-03-03T08:45:39;38.53;;;21.17;;
8654;SDS011;13500;52.514;13.462;2023-03-03T08:48:07;37.93;;;21.17;;
8654;SDS011;13500;52.514;13.462;2023-03-03T08:50:36;40.90;;;24.37;;
8654;SDS011;13500;52.514;13.462;2023-03-03T08:53:05;37.03;;;20.87;;
8654;SDS011;13500;52.514;13.462;2023-03-03T08:55:33;39.63;;;21.70;;
8654;SDS011;13500;52.514;13.462;2023-03-03T08:58:01;34.47;;;18.77;;
8654;SDS011;13500;52.514;13.462;2023-03-03T09:00:29;33.37;;;18.87;;
8654;SDS011;13500;52.514;13.462;2023-03-03T09:02:57;31.17;;;18.87;;
8654;SDS011;13500;52.514;13.462;2023-03-03T09:05:25;33.80;;;18.63;;
8654;SDS011;13500;52.514;13.462;2023-03-03T09:07:54;31.33;;;19.43;;
8654;SDS011;13500;52.514;13.462;2023-03-03T09:10:23;31.67;;;19.23;;
8654;SDS011;13500;52.514;13.462;2023-03-03T09:12:56;33.17;;;19.90;;
8654;SDS011;13500;52.514;13.462;2023-03-03T09:15:27;32.30;;;19.93;;
8654;SDS011;13500;52.514;13.462;2023-03-03T09:17:56;31.90;;;19.97;;
8654;SDS011;13500;52.514;13.462;2023-03-03T09:20:30;33.00;;;20.40;;
8654;SDS011;13500;52.514;13.462;2023-03-03T09:36:20;30.57;;;19.77;;
8654;SDS011;13500;52.514;13.462;2023-03-03T09:38:51;30.97;;;20.03;;
8654;SDS011;13500;52.514;13.462;2023-03-03T09:44:19;32.90;;;20.33;;
8654;SDS011;13500;52.514;13.462;2023-03-03T09:46:54;32.33;;;20.67;;
8654;SDS011;13500;52.514;13.462;2023-03-03T09:49:30;36.60;;;21.73;;
8654;SDS011;13500;52.514;13.462;2023-03-03T09:52:05;37.53;;;20.20;;
8654;SDS011;13500;52.514;13.462;2023-03-03T09:54:48;32.57;;;20.93;;
8654;SDS011;13500;52.514;13.462;2023-03-03T09:57:21;37.20;;;21.27;;
8654;SDS011;13500;52.514;13.462;2023-03-03T09:59:58;34.60;;;22.00;;
8654;SDS011;13500;52.514;13.462;2023-03-03T10:02:41;36.83;;;21.97;;
8654;SDS011;13500;52.514;13.462;2023-03-03T10:05:32;33.73;;;21.90;;
8654;SDS011;13500;52.514;13.462;2023-03-03T10:08:18;38.57;;;23.17;;
8654;SDS011;13500;52.514;13.462;2023-03-03T10:10:55;39.33;;;23.03;;
8654;SDS011;13500;52.514;13.462;2023-03-03T10:13:32;38.93;;;24.87;;
8654;SDS011;13500;52.514;13.462;2023-03-03T10:16:10;41.03;;;25.87;;
8654;SDS011;13500;52.514;13.462;2023-03-03T10:18:44;36.10;;;24.43;;
8654;SDS011;13500;52.514;13.462;2023-03-03T10:21:15;42.07;;;25.33;;
8654;SDS011;13500;52.514;13.462;2023-03-03T10:23:55;39.63;;;24.73;;
8654;SDS011;13500;52.514;13.462;2023-03-03T10:29:38;34.70;;;22.80;;
8654;SDS011;13500;52.514;13.462;2023-03-03T10:35:13;38.37;;;25.77;;
8654;SDS011;13500;52.514;13.462;2023-03-03T10:37:49;38.20;;;23.70;;
8654;SDS011;13500;52.514;13.462;2023-03-03T10:40:27;34.50;;;24.53;;
8654;SDS011;13500;52.514;13.462;2023-03-03T10:43:06;37.90;;;24.67;;
8654;SDS011;13500;52.514;13.462;2023-03-03T10:46:11;34.57;;;22.87;;
8654;SDS011;13500;52.514;13.462;2023-03-03T10:48:49;31.83;;;22.20;;
8654;SDS011;13500;52.514;13.462;2023-03-03T10:51:30;30.97;;;21.83;;
8654;SDS011;13500;52.514;13.462;2023-03-03T10:54:07;32.87;;;22.90;;
8654;SDS011;13500;52.514;13.462;2023-03-03T10:56:46;28.10;;;19.37;;
8654;SDS011;13500;52.514;13.462;2023-03-03T10:59:24;26.60;;;19.77;;
8654;SDS011;13500;52.514;13.462;2023-03-03T11:02:02;30.00;;;22.17;;
8654;SDS011;13500;52.514;13.462;2023-03-03T11:04:41;32.03;;;23.53;;
8654;SDS011;13500;52.514;13.462;2023-03-03T11:07:15;32.73;;;21.73;;
8654;SDS011;13500;52.514;13.462;2023-03-03T11:09:52;33.37;;;24.20;;
8654;SDS011;13500;52.514;13.462;2023-03-03T11:12:40;33.30;;;23.63;;
8654;SDS011;13500;52.514;13.462;2023-03-03T11:15:21;32.90;;;22.67;;
8654;SDS011;13500;52.514;13.462;2023-03-03T11:18:03;31.43;;;21.73;;
8654;SDS011;13500;52.514;13.462;2023-03-03T11:20:39;32.33;;;22.60;;
8654;SDS011;13500;52.514;13.462;2023-03-03T11:23:17;32.87;;;22.27;;
8654;SDS011;13500;52.514;13.462;2023-03-03T11:25:56;31.57;;;22.30;;
8654;SDS011;13500;52.514;13.462;2023-03-03T11:28:42;37.57;;;24.57;;
8654;SDS011;13500;52.514;13.462;2023-03-03T11:31:17;36.30;;;23.77;;
8654;SDS011;13500;52.514;13.462;2023-03-03T11:33:50;31.43;;;21.47;;
8654;SDS011;13500;52.514;13.462;2023-03-03T11:36:24;33.10;;;23.30;;
8654;SDS011;13500;52.514;13.462;2023-03-03T11:38:55;30.63;;;22.00;;
8654;SDS011;13500;52.514;13.462;2023-03-03T11:41:30;31.40;;;21.57;;
8654;SDS011;13500;52.514;13.462;2023-03-03T11:44:04;28.30;;;17.97;;
8654;SDS011;13500;52.514;13.462;2023-03-03T11:46:37;28.83;;;18.23;;
8654;SDS011;13500;52.514;13.462;2023-03-03T11:49:08;26.27;;;17.37;;
8654;SDS011;13500;52.514;13.462;2023-03-03T11:51:43;27.60;;;17.70;;
8654;SDS011;13500;52.514;13.462;2023-03-03T11:54:17;29.33;;;18.17;;
8654;SDS011;13500;52.514;13.462;2023-03-03T11:56:47;29.27;;;19.43;;
8654;SDS011;13500;52.514;13.462;2023-03-03T12:02:26;33.03;;;21.87;;
8654;SDS011;13500;52.514;13.462;2023-03-03T12:05:16;33.70;;;22.57;;
8654;SDS011;13500;52.514;13.462;2023-03-03T12:07:56;31.50;;;22.40;;
8654;SDS011;13500;52.514;13.462;2023-03-03T12:10:31;33.77;;;23.30;;
8654;SDS011;13500;52.514;13.462;2023-03-03T12:13:02;34.83;;;22.57;;
8654;SDS011;13500;52.514;13.462;2023-03-03T12:15:35;32.27;;;22.03;;
8654;SDS011;13500;52.514;13.462;2023-03-03T12:18:12;32.50;;;23.00;;
8654;SDS011;13500;52.514;13.462;2023-03-03T12:20:59;35.50;;;24.70;;
8654;SDS011;13500;52.514;13.462;2023-03-03T12:23:39;34.43;;;25.00;;
8654;SDS011;13500;52.514;13.462;2023-03-03T12:26:15;42.27;;;27.30;;
8654;SDS011;13500;52.514;13.462;2023-03-03T12:28:48;45.87;;;28.97;;
8654;SDS011;13500;52.514;13.462;2023-03-03T12:31:31;45.07;;;29.83;;
8654;SDS011;13500;52.514;13.462;2023-03-03T12:34:07;45.23;;;29.17;;
8654;SDS011;13500;52.514;13.462;2023-03-03T12:36:50;42.33;;;27.67;;
8654;SDS011;13500;52.514;13.462;2023-03-03T12:39:29;34.50;;;23.97;;
8654;SDS011;13500;52.514;13.462;2023-03-03T12:42:09;34.83;;;23.17;;
8654;SDS011;13500;52.514;13.462;2023-03-03T12:44:40;32.40;;;21.03;;
8654;SDS011;13500;52.514;13.462;2023-03-03T12:47:15;26.13;;;17.23;;
8654;SDS011;13500;52.514;13.462;2023-03-03T12:49:51;24.03;;;16.40;;
8654;SDS011;13500;52.514;13.462;2023-03-03T12:52:35;31.47;;;19.33;;
8654;SDS011;13500;52.514;13.462;2023-03-03T12:55:10;32.27;;;21.70;;
8654;SDS011;13500;52.514;13.462;2023-03-03T12:57:47;35.33;;;23.27;;
8654;SDS011;13500;52.514;13.462;2023-03-03T13:00:23;34.63;;;21.43;;
8654;SDS011;13500;52.514;13.462;2023-03-03T13:02:58;35.93;;;23.77;;
8654;SDS011;13500;52.514;13.462;2023-03-03T13:05:32;38.57;;;24.53;;
8654;SDS011;13500;52.514;13.462;2023-03-03T13:08:17;38.37;;;24.50;;
8654;SDS011;13500;52.514;13.462;2023-03-03T13:10:55;38.47;;;26.40;;
8654;SDS011;13500;52.514;13.462;2023-03-03T13:13:29;38.40;;;24.90;;
8654;SDS011;13500;52.514;13.462;2023-03-03T13:16:01;39.87;;;27.07;;
8654;SDS011;13500;52.514;13.462;2023-03-03T13:18:37;38.33;;;27.73;;
8654;SDS011;13500;52.514;13.462;2023-03-03T13:21:16;39.37;;;28.30;;
8654;SDS011;13500;52.514;13.462;2023-03-03T13:23:50;37.40;;;25.87;;
8654;SDS011;13500;52.514;13.462;2023-03-03T13:26:24;33.53;;;23.00;;
8654;SDS011;13500;52.514;13.462;2023-03-03T13:29:02;46.03;;;29.00;;
8654;SDS011;13500;52.514;13.462;2023-03-03T13:31:32;42.97;;;28.30;;
8654;SDS011;13500;52.514;13.462;2023-03-03T13:34:03;43.17;;;29.57;;
8654;SDS011;13500;52.514;13.462;2023-03-03T13:36:33;46.57;;;30.93;;
8654;SDS011;13500;52.514;13.462;2023-03-03T13:39:11;39.93;;;25.67;;
8654;SDS011;13500;52.514;13.462;2023-03-03T13:41:43;41.80;;;25.60;;
8654;SDS011;13500;52.514;13.462;2023-03-03T13:44:16;37.97;;;23.97;;
8654;SDS011;13500;52.514;13.462;2023-03-03T13:46:49;33.63;;;23.30;;
8654;SDS011;13500;52.514;13.462;2023-03-03T13:52:19;34.93;;;21.33;;
8654;SDS011;13500;52.514;13.462;2023-03-03T13:54:52;31.13;;;21.87;;
8654;SDS011;13500;52.514;13.462;2023-03-03T13:57:30;30.50;;;21.83;;
8654;SDS011;13500;52.514;13.462;2023-03-03T14:00:10;30.80;;;21.70;;
8654;SDS011;13500;52.514;13.462;2023-03-03T14:03:00;28.60;;;20.60;;
8654;SDS011;13500;52.514;13.462;2023-03-03T14:05:35;30.03;;;20.07;;
8654;SDS011;13500;52.514;13.462;2023-03-03T14:08:07;28.90;;;20.33;;
8654;SDS011;13500;52.514;13.462;2023-03-03T14:10:40;32.80;;;21.37;;
8654;SDS011;13500;52.514;13.462;2023-03-03T14:13:14;29.00;;;19.87;;
8654;SDS011;13500;52.514;13.462;2023-03-03T14:15:47;31.30;;;21.83;;
8654;SDS011;13500;52.514;13.462;2023-03-03T14:18:21;34.10;;;23.67;;
8654;SDS011;13500;52.514;13.462;2023-03-03T14:20:53;35.77;;;23.33;;
8654;SDS011;13500;52.514;13.462;2023-03-03T14:23:24;34.83;;;23.57;;
8654;SDS011;13500;52.514;13.462;2023-03-03T14:25:58;38.87;;;26.70;;
8654;SDS011;13500;52.514;13.462;2023-03-03T14:28:28;37.33;;;26.13;;
8654;SDS011;13500;52.514;13.462;2023-03-03T14:31:09;40.33;;;27.90;;
8654;SDS011;13500;52.514;13.462;2023-03-03T14:33:43;39.10;;;26.83;;
8654;SDS011;13500;52.514;13.462;2023-03-03T14:36:14;41.10;;;27.10;;
8654;SDS011;13500;52.514;13.462;2023-03-03T14:38:55;34.63;;;25.63;;
8654;SDS011;13500;52.514;13.462;2023-03-03T14:44:26;33.93;;;24.53;;
8654;SDS011;13500;52.514;13.462;2023-03-03T14:47:15;29.17;;;19.77;;
8654;SDS011;13500;52.514;13.462;2023-03-03T14:49:47;31.67;;;23.97;;
8654;SDS011;13500;52.514;13.462;2023-03-03T14:52:24;29.37;;;22.27;;
8654;SDS011;13500;52.514;13.462;2023-03-03T14:54:53;30.90;;;23.10;;
8654;SDS011;13500;52.514;13.462;2023-03-03T14:57:36;28.83;;;20.40;;
8654;SDS011;13500;52.514;13.462;2023-03-03T15:00:26;29.27;;;19.53;;
8654;SDS011;13500;52.514;13.462;2023-03-03T15:03:01;27.47;;;19.30;;
8654;SDS011;13500;52.514;13.462;2023-03-03T15:05:32;30.07;;;19.70;;
8654;SDS011;13500;52.514;13.462;2023-03-03T15:08:08;28.60;;;20.47;;
8654;SDS011;13500;52.514;13.462;2023-03-03T15:10:38;31.77;;;20.83;;
8654;SDS011;13500;52.514;13.462;2023-03-03T15:13:08;29.37;;;19.57;;
8654;SDS011;13500;52.514;13.462;2023-03-03T15:15:52;27.87;;;20.10;;
8654;SDS011;13500;52.514;13.462;2023-03-03T15:18:28;31.40;;;22.30;;
8654;SDS011;13500;52.514;13.462;2023-03-03T15:20:59;30.70;;;23.67;;
8654;SDS011;13500;52.514;13.462;2023-03-03T15:23:37;30.50;;;22.63;;